Pittsburgh, PA (15241)

7:57 PM EDT on September 30, 2014 (GMT -0400)
Mount Lebanon | Change Station
CLOSE
Current Station
Personal Weather Station
Location: Mount Lebanon, PA
Elevation: 1201 ft
Nearby Weather Stations

Elev 1201 ft 40.36 °N, 80.04 °W | Updated 4 seconds ago

Partly Cloudy
Partly Cloudy
59.2 °F
Feels Like 59.2 °F
N
0.0
Wind Variable Wind from NNW
Gusts 0.0 mph

Today
High -- | Low -- °F
--% Chance of Precip.
Yesterday
High -- | Low -- °F
Precip. -- in
7:15 AM 7:04 PM
Waxing Crescent, 41% visible
Pressure 29.91 in
Visibility 10.0 miles
Clouds Scattered Clouds 8000 ft
Dew Point 44 °F
Humidity 57%
Rainfall 0.04 in
Snow Depth Not available.
UV 0 out of 12
Pollen 2.10 out of 12
Ozone Good
PM2.5 Good
Flu Activity Not available.
METAR KAGC 302253Z 16005KT 10SM SCT080 18/12 A2990 RMK AO2 SLP127 T01780117

More Conditions Fewer Conditions

Pressure 29.91 in
Visibility 10.0 miles
Clouds Scattered Clouds 8000 ft
Dew Point 44 °F
Humidity 57%
Rainfall 0.04 in
Snow Depth Not available.
UV 0 out of 12
Pollen 2.10 out of 12
Ozone Good
PM2.5 Good
Flu Activity Not available.
METAR KAGC 302253Z 16005KT 10SM SCT080 18/12 A2990 RMK AO2 SLP127 T01780117

More Conditions Fewer Conditions

10-Day Weather Forecast

Almanac

Astronomy

Sep. 30, 2014 Rise Set
Actual Time 7:15 AM EDT 7:04 PM EDT
Civil Twilight 6:48 AM EDT 7:31 PM EDT
Nautical Twilight 6:16 AM EDT 8:02 PM EDT
Astronomical Twilight 5:44 AM EDT 8:34 PM EDT
Moon 1:22 PM EDT 11:32 PM EDT
Length of Visible Light 12h 42m
Length of Day
11h 48m
Tomorrow will be 2m 39s shorter.
Waxing Crescent, 41% of the Moon is Illuminated
Today
Waxing Crescent
Oct 1
First Quarter
Oct 8
Full
Oct 15
Last Quarter
Oct 23
New

Today's Extremes

State Highs State Lows

Community

WunderPhotos

Upload Photos

1,757,785 photos uploaded!

Nearby

Air Quality

  Air Quality AQ Index Pollutant
Yesterday Moderate
PM2.5
Yesterday Good
OZONE
Current Good
PM2.5
Current Good
OZONE
Tuesday Moderate
PM2.5
Wednesday Moderate
PM2.5
Thursday Moderate
PM2.5

Snow Depth

Station Depth Elevation
No new snow has been reported.

Earthquake Activity

City Distance Mag. Time & Date
No recent earthquake activity has been reported nearby.
Minimum magnitude displayed is 2.5.

Coastal Water Temperatures

Place Temperature
No Stations Reporting

Nearby Weather Stations